Time;durP1;ratioP1;P1;durP2;ratioP2;P2;SDS_P1;SDS_P2;PMS_P1;PMS_P2;Temp;Humidity;BMP_temperature;BMP_pressure;BME280_temperature;BME280_humidity;BME280_pressure;Samples;Min_cycle;Max_cycle;Signal;HPM_P1;HPM_P2
2022/07/15 00:02:05;;;;;;;2.70;0.55;;;17.00;72.90;;;;;;5066324;28;20024;-62
2022/07/15 00:04:31;;;;;;;2.13;0.50;;;17.00;73.00;;;;;;5066626;28;20026;-61
2022/07/15 00:06:56;;;;;;;2.22;0.50;;;17.00;73.20;;;;;;5066630;28;20096;-61
2022/07/15 00:10:13;;;;;;;2.45;0.60;;;16.90;73.20;;;;;;5067811;28;20032;-61
2022/07/15 00:12:07;;;;;;;2.58;0.80;;;16.90;73.40;;;;;;5066252;28;20025;-61
2022/07/15 00:14:33;;;;;;;1.80;0.45;;;16.80;73.50;;;;;;5066130;28;20037;-61
2022/07/15 00:16:58;;;;;;;1.77;0.40;;;16.70;73.70;;;;;;5066552;28;20119;-61
2022/07/15 00:19:24;;;;;;;1.63;0.40;;;16.70;73.90;;;;;;5083040;28;20025;-61
2022/07/15 00:21:49;;;;;;;1.80;0.50;;;16.70;74.00;;;;;;5065600;28;20097;-61
2022/07/15 00:24:15;;;;;;;1.23;0.40;;;16.60;74.10;;;;;;5067396;28;20542;-61
2022/07/15 00:26:41;;;;;;;1.90;0.50;;;16.60;74.30;;;;;;5065035;28;20029;-61
2022/07/15 00:29:07;;;;;;;2.45;0.52;;;16.50;74.50;;;;;;5082908;28;20448;-61
2022/07/15 00:31:33;;;;;;;2.15;0.50;;;16.50;74.60;;;;;;5066967;28;20389;-61
2022/07/15 00:33:58;;;;;;;1.17;0.50;;;16.40;74.80;;;;;;5067277;28;20077;-61
2022/07/15 00:36:24;;;;;;;2.97;0.50;;;16.40;75.00;;;;;;5066284;28;20037;-61
2022/07/15 00:38:49;;;;;;;5.53;0.70;;;16.30;75.10;;;;;;5068003;28;20020;-61
2022/07/15 00:41:15;;;;;;;3.65;1.08;;;16.30;75.40;;;;;;5065956;28;20442;-61
2022/07/15 00:43:41;;;;;;;2.30;0.55;;;16.20;75.40;;;;;;5066630;28;20091;-61
2022/07/15 00:46:06;;;;;;;2.45;0.45;;;16.20;75.60;;;;;;5063527;28;20073;-60
2022/07/15 00:48:32;;;;;;;2.80;0.60;;;16.10;75.80;;;;;;5083442;28;20669;-61
2022/07/15 00:50:58;;;;;;;2.20;0.47;;;16.10;75.90;;;;;;5066195;28;20785;-62
2022/07/15 00:53:28;;;;;;;3.05;0.55;;;16.10;76.10;;;;;;5067026;28;20039;-61
2022/07/15 00:55:58;;;;;;;2.67;0.50;;;16.00;76.30;;;;;;5066570;28;20036;-61
2022/07/15 00:58:26;;;;;;;2.67;0.70;;;16.00;76.50;;;;;;5068055;28;20037;-61
2022/07/15 01:00:54;;;;;;;1.48;0.40;;;16.00;76.60;;;;;;5067168;28;20543;-61
2022/07/15 01:03:20;;;;;;;2.25;0.50;;;15.90;76.80;;;;;;5067404;28;20063;-61
2022/07/15 01:05:47;;;;;;;2.70;0.55;;;15.80;77.00;;;;;;5064653;28;20021;-61
2022/07/15 01:08:14;;;;;;;2.75;0.82;;;15.80;77.10;;;;;;5065633;28;20381;-61
2022/07/15 01:10:41;;;;;;;2.30;0.45;;;15.80;77.30;;;;;;5071324;28;20028;-61
2022/07/15 01:13:06;;;;;;;2.30;0.50;;;15.80;77.40;;;;;;5071010;28;20568;-61
2022/07/15 01:15:32;;;;;;;1.90;0.80;;;15.80;77.50;;;;;;5066181;28;20107;-61
2022/07/15 01:18:02;;;;;;;3.17;0.60;;;15.70;77.60;;;;;;5069909;28;20048;-61
2022/07/15 01:20:29;;;;;;;2.10;0.40;;;15.70;77.80;;;;;;5069974;28;20028;-61
2022/07/15 01:22:54;;;;;;;3.03;0.50;;;15.70;78.00;;;;;;5072083;28;20472;-61
2022/07/15 01:25:20;;;;;;;2.28;0.50;;;15.70;78.20;;;;;;5068135;28;20043;-61
2022/07/15 01:27:46;;;;;;;3.92;0.45;;;15.60;78.90;;;;;;5069375;28;20036;-61
2022/07/15 01:30:11;;;;;;;3.42;0.70;;;15.60;78.50;;;;;;5071195;28;20032;-61
2022/07/15 01:32:37;;;;;;;2.47;0.45;;;15.60;78.60;;;;;;5069433;28;20032;-60
2022/07/15 01:35:03;;;;;;;2.13;0.50;;;15.60;78.70;;;;;;5069973;28;20065;-60
2022/07/15 01:37:28;;;;;;;4.53;0.50;;;15.50;78.80;;;;;;5071259;28;20041;-61
2022/07/15 01:39:54;;;;;;;2.78;0.50;;;15.60;78.90;;;;;;5068783;28;20051;-60
2022/07/15 01:42:20;;;;;;;1.95;0.50;;;15.50;79.00;;;;;;5068908;28;20464;-60
2022/07/15 01:44:45;;;;;;;1.42;0.40;;;15.40;79.20;;;;;;5068352;28;20071;-61
2022/07/15 01:47:11;;;;;;;1.75;0.30;;;15.40;79.50;;;;;;5068361;28;20016;-60
2022/07/15 01:49:36;;;;;;;0.80;0.40;;;15.40;80.40;;;;;;5070818;28;20025;-61
2022/07/15 01:52:03;;;;;;;2.00;0.50;;;15.30;80.00;;;;;;5074259;28;20017;-60
2022/07/15 01:54:30;;;;;;;1.48;0.45;;;15.20;80.30;;;;;;5071154;28;21269;-61
2022/07/15 01:56:56;;;;;;;1.35;0.40;;;15.20;80.60;;;;;;5069581;28;20052;-61
2022/07/15 01:59:23;;;;;;;1.00;0.40;;;15.10;81.10;;;;;;5069159;28;20048;-61
2022/07/15 02:01:51;;;;;;;0.90;0.50;;;15.00;81.50;;;;;;5068355;28;20147;-62
2022/07/15 02:04:18;;;;;;;1.33;0.40;;;15.00;81.90;;;;;;5066898;28;20020;-60
2022/07/15 02:06:43;;;;;;;1.95;0.40;;;15.00;82.30;;;;;;5068464;28;20063;-61
2022/07/15 02:09:09;;;;;;;1.10;0.40;;;14.90;82.60;;;;;;5071216;28;20064;-60
2022/07/15 02:11:35;;;;;;;3.15;0.40;;;14.90;82.90;;;;;;5067791;28;20025;-60
2022/07/15 02:14:01;;;;;;;1.17;0.68;;;14.90;82.90;;;;;;5069003;28;20077;-61
2022/07/15 02:16:29;;;;;;;1.52;0.40;;;14.90;82.90;;;;;;5070042;28;20081;-60
2022/07/15 02:18:55;;;;;;;2.28;0.40;;;14.90;82.90;;;;;;5065358;28;20025;-61
2022/07/15 02:21:20;;;;;;;3.78;0.50;;;15.00;82.90;;;;;;5069113;28;20032;-61
2022/07/15 02:23:46;;;;;;;3.15;0.40;;;15.00;82.90;;;;;;5068551;28;20025;-61
2022/07/15 02:26:13;;;;;;;1.98;0.50;;;15.00;82.90;;;;;;5071289;28;20065;-61
2022/07/15 02:28:38;;;;;;;2.08;0.40;;;15.00;83.00;;;;;;5071634;28;20476;-60
2022/07/15 02:31:05;;;;;;;1.92;0.40;;;15.00;82.90;;;;;;5067317;28;20029;-61
2022/07/15 02:33:31;;;;;;;2.83;0.40;;;15.00;83.00;;;;;;5067814;28;20055;-60
2022/07/15 02:36:17;;;;;;;;;;;;;;;;;;;;;
2022/07/15 02:38:43;;;;;;;1.05;0.50;;;15.00;83.20;;;;;;5065248;28;20021;-61
2022/07/15 02:41:11;;;;;;;0.65;0.30;;;15.00;83.20;;;;;;5068453;28;20365;-61
2022/07/15 02:43:37;;;;;;;1.73;0.40;;;15.00;83.50;;;;;;5067759;28;20025;-61
2022/07/15 02:46:02;;;;;;;1.70;0.50;;;15.00;83.50;;;;;;5066400;28;20025;-61
2022/07/15 02:48:28;;;;;;;1.55;0.50;;;15.00;83.70;;;;;;5069850;28;20052;-61
2022/07/15 02:50:53;;;;;;;2.78;0.50;;;15.00;83.80;;;;;;5069403;28;20456;-60
2022/07/15 02:53:21;;;;;;;3.55;0.52;;;15.00;83.90;;;;;;5070299;28;20619;-60
2022/07/15 02:55:48;;;;;;;2.42;0.55;;;14.90;83.80;;;;;;5068143;28;20025;-61
2022/07/15 02:58:14;;;;;;;1.30;0.50;;;15.00;84.60;;;;;;5069866;28;20058;-60
2022/07/15 03:00:39;;;;;;;3.65;0.73;;;15.00;84.00;;;;;;5071388;28;20025;-61
2022/07/15 03:03:05;;;;;;;1.38;0.60;;;14.90;84.10;;;;;;5066729;28;20119;-61
2022/07/15 03:05:31;;;;;;;4.10;0.90;;;14.90;84.40;;;;;;5067660;28;20036;-60
2022/07/15 03:07:56;;;;;;;2.60;0.70;;;14.80;84.70;;;;;;5069428;28;20114;-61
2022/07/15 03:10:22;;;;;;;4.20;0.65;;;14.70;85.20;;;;;;5068439;28;20370;-61
2022/07/15 03:12:47;;;;;;;2.63;0.63;;;14.70;85.60;;;;;;5065579;28;20028;-61
2022/07/15 03:15:13;;;;;;;4.80;0.50;;;14.70;85.80;;;;;;5066715;28;20032;-60
2022/07/15 03:17:42;;;;;;;2.05;0.68;;;14.70;85.90;;;;;;5069284;28;20038;-61
2022/07/15 03:20:09;;;;;;;1.60;0.52;;;14.70;86.00;;;;;;5066879;28;20024;-61
2022/07/15 03:22:35;;;;;;;0.70;0.45;;;14.70;86.10;;;;;;5067439;28;20028;-60
2022/07/15 03:25:01;;;;;;;1.77;0.50;;;14.70;86.20;;;;;;5069255;28;20365;-60
2022/07/15 03:27:26;;;;;;;2.90;0.77;;;14.70;86.20;;;;;;5068992;28;20012;-60
2022/07/15 03:29:52;;;;;;;3.33;0.80;;;14.70;86.30;;;;;;5066076;28;20025;-60
2022/07/15 03:32:20;;;;;;;2.05;0.68;;;14.60;86.30;;;;;;5066092;28;20078;-60
2022/07/15 03:34:46;;;;;;;2.22;0.80;;;14.60;86.30;;;;;;5069278;28;20067;-60
2022/07/15 03:37:12;;;;;;;2.63;0.93;;;14.70;86.50;;;;;;5068011;28;20016;-61
2022/07/15 03:39:38;;;;;;;3.38;0.93;;;14.60;87.10;;;;;;5067979;28;20369;-61
2022/07/15 03:42:03;;;;;;;4.22;0.90;;;14.60;86.60;;;;;;5080787;28;20058;-61
2022/07/15 03:44:29;;;;;;;3.80;0.90;;;14.60;86.80;;;;;;5067482;28;20025;-60
2022/07/15 03:46:54;;;;;;;3.22;1.08;;;14.60;86.90;;;;;;5068080;28;20016;-61
2022/07/15 03:49:20;;;;;;;3.33;0.85;;;14.60;87.00;;;;;;5068760;28;20032;-61
2022/07/15 03:51:46;;;;;;;3.30;1.25;;;14.60;87.20;;;;;;5068192;28;20031;-61
2022/07/15 03:54:15;;;;;;;2.85;0.90;;;14.60;87.30;;;;;;5068542;28;20056;-60
2022/07/15 03:56:40;;;;;;;1.30;0.75;;;14.60;87.50;;;;;;5067776;28;20059;-60
2022/07/15 03:59:06;;;;;;;3.22;1.20;;;14.60;87.60;;;;;;5067137;28;20020;-60
2022/07/15 04:01:32;;;;;;;1.65;0.77;;;14.60;87.80;;;;;;5067212;28;20055;-60
2022/07/15 04:03:58;;;;;;;2.92;1.10;;;14.60;88.00;;;;;;5064164;28;20399;-60
2022/07/15 04:06:24;;;;;;;3.92;1.13;;;14.60;88.20;;;;;;5067755;28;20025;-60
2022/07/15 04:08:50;;;;;;;4.78;0.90;;;14.60;88.30;;;;;;5066898;28;20059;-61
2022/07/15 04:11:16;;;;;;;2.70;0.95;;;14.60;88.40;;;;;;5063425;28;20465;-61
2022/07/15 04:13:42;;;;;;;3.85;0.95;;;14.70;88.60;;;;;;5064069;28;20429;-61
2022/07/15 04:16:14;;;;;;;4.38;0.82;;;14.70;88.80;;;;;;5068621;28;20374;-61
2022/07/15 04:18:39;;;;;;;2.42;1.02;;;14.70;88.90;;;;;;5066589;28;20106;-60
2022/07/15 04:21:05;;;;;;;2.38;0.70;;;14.70;88.90;;;;;;5067019;28;20021;-61
2022/07/15 04:23:31;;;;;;;3.20;0.80;;;14.70;89.00;;;;;;5066198;28;20044;-61
2022/07/15 04:25:56;;;;;;;4.82;0.80;;;14.70;89.10;;;;;;5068266;28;20445;-60
2022/07/15 04:28:23;;;;;;;3.45;0.90;;;14.70;89.20;;;;;;5066262;28;20453;-60
2022/07/15 04:30:49;;;;;;;2.15;0.77;;;14.70;89.30;;;;;;5067037;28;20028;-60
2022/07/15 04:33:15;;;;;;;4.22;1.02;;;14.70;89.50;;;;;;5068133;28;20029;-60
2022/07/15 04:35:41;;;;;;;3.38;0.88;;;14.70;89.60;;;;;;5068078;28;20093;-60
2022/07/15 04:38:07;;;;;;;2.42;1.17;;;14.70;89.70;;;;;;5066217;28;20476;-60
2022/07/15 04:40:33;;;;;;;3.13;1.00;;;14.80;89.90;;;;;;5066904;28;20036;-61
2022/07/15 04:42:59;;;;;;;3.83;0.90;;;14.80;90.00;;;;;;5068325;28;20028;-61
2022/07/15 04:45:28;;;;;;;2.20;0.93;;;14.80;90.00;;;;;;5067991;28;20029;-60
2022/07/15 04:47:54;;;;;;;4.20;1.00;;;14.80;90.10;;;;;;5065727;28;20024;-61
2022/07/15 04:53:05;;;;;;;2.42;0.90;;;14.80;90.20;;;;;;5066959;28;20031;-60
2022/07/15 04:55:31;;;;;;;3.40;1.05;;;14.80;90.30;;;;;;5067744;28;20067;-60
2022/07/15 04:57:57;;;;;;;2.67;0.85;;;14.80;90.50;;;;;;5065629;28;20504;-61
2022/07/15 05:00:23;;;;;;;3.55;0.93;;;14.90;90.50;;;;;;5067528;28;20028;-60
2022/07/15 05:02:48;;;;;;;3.92;0.85;;;14.90;90.60;;;;;;5065000;28;20036;-61
2022/07/15 05:05:15;;;;;;;3.97;0.98;;;14.90;90.60;;;;;;5066393;28;20047;-61
2022/07/15 05:07:41;;;;;;;2.88;1.00;;;15.00;90.60;;;;;;5067024;28;20480;-60
2022/07/15 05:10:07;;;;;;;3.38;0.95;;;15.00;90.60;;;;;;5066916;28;20021;-61
2022/07/15 05:12:33;;;;;;;4.32;1.00;;;15.10;90.60;;;;;;5065548;28;20033;-60
2022/07/15 05:14:59;;;;;;;2.53;0.80;;;15.10;90.60;;;;;;5063691;28;20028;-60
2022/07/15 05:17:25;;;;;;;4.57;1.17;;;15.10;90.60;;;;;;5067739;28;20021;-60
2022/07/15 05:19:52;;;;;;;4.03;1.30;;;15.20;90.60;;;;;;5066178;28;20170;-61
2022/07/15 05:22:18;;;;;;;4.32;1.15;;;15.10;90.60;;;;;;5063330;28;20020;-60
2022/07/15 05:24:44;;;;;;;3.10;0.90;;;15.20;90.60;;;;;;5066486;28;20040;-60
2022/07/15 05:27:10;;;;;;;3.08;0.98;;;15.20;90.60;;;;;;5067116;28;20012;-60
2022/07/15 05:29:35;;;;;;;3.40;1.33;;;15.20;90.60;;;;;;5064492;28;20024;-60
2022/07/15 05:32:00;;;;;;;4.30;1.17;;;15.30;90.60;;;;;;5065831;28;20384;-60
2022/07/15 05:34:26;;;;;;;3.92;1.42;;;15.30;90.60;;;;;;5067881;28;20488;-61
2022/07/15 05:36:52;;;;;;;2.08;0.90;;;15.30;90.60;;;;;;5065824;28;20028;-60
2022/07/15 05:39:17;;;;;;;3.47;1.13;;;15.30;90.50;;;;;;5067373;28;20118;-60
2022/07/15 05:41:43;;;;;;;4.63;1.30;;;15.30;90.50;;;;;;5065835;28;20025;-60
2022/07/15 05:44:08;;;;;;;5.47;1.10;;;15.40;90.50;;;;;;5069950;28;20027;-60
2022/07/15 05:46:34;;;;;;;3.53;1.48;;;15.40;90.50;;;;;;5068125;28;20032;-60
2022/07/15 05:49:00;;;;;;;2.80;1.15;;;15.40;90.60;;;;;;5068609;28;20016;-60
2022/07/15 05:51:26;;;;;;;3.72;1.10;;;15.40;90.60;;;;;;5067395;28;20468;-61
2022/07/15 05:53:51;;;;;;;3.17;1.30;;;15.50;90.60;;;;;;5065908;28;20044;-60
2022/07/15 05:56:17;;;;;;;3.33;1.15;;;15.50;90.60;;;;;;5070866;28;20447;-60
2022/07/15 05:58:42;;;;;;;3.67;1.83;;;15.50;90.70;;;;;;5068690;28;20028;-60
2022/07/15 06:01:09;;;;;;;2.83;1.00;;;15.50;90.70;;;;;;5068533;28;20033;-61
2022/07/15 06:03:35;;;;;;;3.28;1.05;;;15.50;90.70;;;;;;5071356;28;20512;-61
2022/07/15 06:06:02;;;;;;;2.15;0.95;;;15.60;90.70;;;;;;5073974;28;20476;-60
2022/07/15 06:08:28;;;;;;;3.42;1.90;;;15.60;91.00;;;;;;5071755;28;20071;-60
2022/07/15 06:10:54;;;;;;;3.45;1.00;;;15.60;90.70;;;;;;5069059;28;20059;-60
2022/07/15 06:13:23;;;;;;;3.80;1.02;;;15.70;90.60;;;;;;5070837;28;20062;-60
2022/07/15 06:15:48;;;;;;;5.83;0.90;;;15.70;90.60;;;;;;5072759;28;20031;-60
2022/07/15 06:18:14;;;;;;;2.67;0.70;;;15.80;90.60;;;;;;5067387;28;20025;-60
2022/07/15 06:20:40;;;;;;;5.15;0.88;;;15.80;90.60;;;;;;5067483;28;20108;-61
2022/07/15 06:23:05;;;;;;;4.35;1.17;;;15.90;90.50;;;;;;5070901;28;20039;-60
2022/07/15 06:25:31;;;;;;;4.07;0.80;;;15.90;90.50;;;;;;5083377;28;20694;-60
2022/07/15 06:27:56;;;;;;;3.58;0.95;;;15.90;90.40;;;;;;5063383;28;20606;-61
2022/07/15 06:30:24;;;;;;;3.65;0.95;;;16.00;90.40;;;;;;5072990;28;20029;-60
2022/07/15 06:32:50;;;;;;;3.72;0.90;;;16.00;90.30;;;;;;5070555;28;20484;-61
2022/07/15 06:35:42;;;;;;;3.03;1.00;;;16.10;90.30;;;;;;5072462;28;20028;-60
2022/07/15 06:38:07;;;;;;;5.88;0.90;;;16.10;90.20;;;;;;5068318;28;20070;-61
2022/07/15 06:40:33;;;;;;;2.63;0.80;;;16.20;90.20;;;;;;5074084;28;20031;-60
2022/07/15 06:42:58;;;;;;;3.45;0.75;;;16.20;90.20;;;;;;5067687;28;20078;-60
2022/07/15 06:45:25;;;;;;;3.65;0.80;;;16.20;90.10;;;;;;5068009;28;20384;-61
2022/07/15 06:47:50;;;;;;;1.90;0.60;;;16.30;90.10;;;;;;5068260;28;20021;-61
2022/07/15 06:50:16;;;;;;;4.40;1.02;;;16.30;90.10;;;;;;5066462;28;20025;-61
2022/07/15 06:52:41;;;;;;;2.95;0.63;;;16.40;90.00;;;;;;5058640;28;20028;-60
2022/07/15 06:55:26;;;;;;;2.30;0.65;;;16.40;89.90;;;;;;5059696;28;20041;-60
2022/07/15 07:02:15;;;;;;;4.90;0.60;;;16.50;89.30;;;;;;5054711;28;20079;-60
2022/07/15 07:04:42;;;;;;;2.67;0.50;;;16.60;89.00;;;;;;5050362;28;20039;-61
2022/07/15 07:07:19;;;;;;;3.88;0.60;;;16.60;88.90;;;;;;5065110;28;20009;-60
2022/07/15 07:09:45;;;;;;;1.30;0.45;;;16.70;88.50;;;;;;5063705;28;20094;-61
2022/07/15 07:12:13;;;;;;;4.30;0.63;;;16.80;88.30;;;;;;5086399;28;20539;-60
2022/07/15 07:14:38;;;;;;;3.33;0.73;;;16.80;88.00;;;;;;5068225;28;20481;-60
2022/07/15 07:17:04;;;;;;;2.88;0.50;;;16.90;87.80;;;;;;5071374;28;20039;-60
2022/07/15 07:19:29;;;;;;;3.15;0.60;;;17.00;87.70;;;;;;5081346;28;20017;-61
2022/07/15 07:21:55;;;;;;;2.13;0.57;;;17.00;87.40;;;;;;5078663;28;20077;-60
2022/07/15 07:24:20;;;;;;;2.97;0.60;;;17.10;87.10;;;;;;5070332;28;20035;-61
2022/07/15 07:26:46;;;;;;;4.10;0.70;;;17.20;86.90;;;;;;5059397;28;20021;-60
2022/07/15 07:29:12;;;;;;;2.80;0.68;;;17.30;86.80;;;;;;5075779;28;20020;-60
2022/07/15 07:31:38;;;;;;;5.57;0.70;;;17.40;86.50;;;;;;5070486;28;20047;-61
2022/07/15 07:34:04;;;;;;;3.67;0.63;;;17.50;86.20;;;;;;5067855;28;20033;-61
2022/07/15 07:36:29;;;;;;;2.90;0.65;;;17.60;85.70;;;;;;5064353;28;20051;-60
2022/07/15 07:38:55;;;;;;;3.72;0.77;;;17.70;85.90;;;;;;5079588;28;20103;-61
2022/07/15 07:41:21;;;;;;;2.55;0.68;;;17.70;85.00;;;;;;5076740;28;20099;-60
2022/07/15 07:43:46;;;;;;;3.15;0.43;;;17.80;84.90;;;;;;5083577;28;20107;-61
2022/07/15 07:46:34;;;;;;;2.85;0.70;;;17.90;84.80;;;;;;5064133;28;20029;-61
2022/07/15 07:49:00;;;;;;;2.10;0.50;;;17.90;84.70;;;;;;5059480;28;20017;-60
2022/07/15 07:51:26;;;;;;;3.58;0.50;;;18.00;84.60;;;;;;5073125;28;20523;-61
2022/07/15 07:53:52;;;;;;;1.48;0.38;;;18.20;84.20;;;;;;5064245;28;20057;-60
2022/07/15 07:56:17;;;;;;;4.00;0.60;;;18.30;83.80;;;;;;5070962;28;20016;-60
2022/07/15 07:58:43;;;;;;;3.13;0.50;;;18.40;83.30;;;;;;5060732;28;20028;-61
2022/07/15 08:01:08;;;;;;;4.25;0.50;;;18.60;82.70;;;;;;5065928;28;20021;-61
2022/07/15 08:03:34;;;;;;;5.70;0.50;;;18.70;82.00;;;;;;5053320;28;20021;-60
2022/07/15 08:06:01;;;;;;;1.98;0.50;;;18.70;82.40;;;;;;5069203;28;20056;-61
2022/07/15 08:08:26;;;;;;;2.47;0.45;;;18.80;81.60;;;;;;5058528;28;20025;-61
2022/07/15 08:10:54;;;;;;;2.80;0.47;;;18.90;81.10;;;;;;5065634;28;20774;-61
2022/07/15 08:13:22;;;;;;;3.75;0.60;;;19.00;80.60;;;;;;5067095;28;20024;-61
2022/07/15 08:15:49;;;;;;;4.05;0.82;;;19.10;79.70;;;;;;5065654;28;20067;-61
2022/07/15 08:18:15;;;;;;;2.55;0.47;;;19.10;78.90;;;;;;5074503;28;20028;-61
2022/07/15 08:20:41;;;;;;;2.08;0.43;;;19.20;78.50;;;;;;5086046;28;20051;-61
2022/07/15 08:23:07;;;;;;;2.47;0.30;;;19.20;78.20;;;;;;5068317;28;20070;-61
2022/07/15 08:25:36;;;;;;;4.72;0.40;;;19.30;77.60;;;;;;5063068;28;20032;-61
2022/07/15 08:28:03;;;;;;;2.45;0.32;;;19.30;76.60;;;;;;5058623;28;20021;-61
2022/07/15 08:30:30;;;;;;;1.58;0.40;;;19.30;76.20;;;;;;5057128;28;20048;-61
2022/07/15 08:32:57;;;;;;;1.70;0.50;;;19.30;76.00;;;;;;5069187;28;20029;-61
2022/07/15 08:35:24;;;;;;;2.78;0.52;;;19.30;75.90;;;;;;5053034;28;20048;-61
2022/07/15 08:38:05;;;;;;;;;;;;;;;;;;;;;
2022/07/15 08:40:31;;;;;;;2.70;0.38;;;19.30;75.50;;;;;;5058117;28;20051;-61
2022/07/15 08:42:57;;;;;;;4.95;0.40;;;19.30;75.40;;;;;;5065473;28;20028;-61
2022/07/15 08:45:22;;;;;;;2.20;0.40;;;19.40;75.00;;;;;;5071709;28;20021;-62
2022/07/15 08:47:50;;;;;;;3.95;0.82;;;19.50;74.00;;;;;;5062976;28;20107;-61
2022/07/15 08:50:17;;;;;;;1.20;0.30;;;19.50;72.90;;;;;;5062507;28;20104;-61
2022/07/15 08:52:44;;;;;;;2.13;0.60;;;19.60;72.50;;;;;;5056563;28;20037;-61
2022/07/15 08:55:10;;;;;;;2.33;0.40;;;19.60;72.10;;;;;;5058177;28;20523;-61
2022/07/15 08:57:36;;;;;;;1.75;0.40;;;19.70;71.70;;;;;;5056563;28;20048;-61
2022/07/15 09:00:07;;;;;;;2.83;0.85;;;19.70;71.30;;;;;;5067452;28;20052;-61
2022/07/15 09:02:32;;;;;;;1.95;0.47;;;19.70;70.60;;;;;;5063740;28;20095;-61
2022/07/15 09:05:23;;;;;;;0.77;0.30;;;19.70;69.60;;;;;;5062337;28;20103;-61
2022/07/15 09:08:02;;;;;;;1.75;0.30;;;19.80;69.40;;;;;;5059890;28;20432;-61
2022/07/15 09:10:41;;;;;;;;;;;19.80;69.50;;;;;;5058690;28;20017;-61
2022/07/15 09:13:06;;;;;;;1.10;0.30;;;19.80;69.60;;;;;;5065447;28;19912;-61
2022/07/15 09:15:37;;;;;;;1.50;0.40;;;19.80;68.60;;;;;;5058439;28;20032;-61
2022/07/15 09:18:12;;;;;;;1.52;0.30;;;19.80;68.00;;;;;;5090670;28;20039;-61
2022/07/15 09:20:38;;;;;;;1.00;0.30;;;19.80;67.90;;;;;;5062460;28;20555;-61
2022/07/15 09:23:05;;;;;;;2.28;0.40;;;19.90;67.90;;;;;;5062033;28;20035;-61
2022/07/15 09:25:35;;;;;;;3.22;0.32;;;20.00;67.70;;;;;;5073382;28;20092;-61
2022/07/15 09:28:07;;;;;;;1.58;0.30;;;20.10;67.60;;;;;;5065607;28;20031;-61
2022/07/15 09:36:14;;;;;;;1.20;0.30;;;20.30;66.80;;;;;;5056024;28;20021;-61
2022/07/15 09:39:01;;;;;;;3.05;0.38;;;20.30;66.90;;;;;;5068926;28;20488;-61
2022/07/15 09:41:29;;;;;;;1.10;0.30;;;20.40;67.00;;;;;;5056301;28;20037;-61
2022/07/15 09:43:55;;;;;;;2.88;0.50;;;20.40;66.90;;;;;;5071810;28;20488;-61
2022/07/15 09:46:24;;;;;;;0.85;0.38;;;20.50;66.90;;;;;;5084380;28;20028;-61
2022/07/15 09:48:52;;;;;;;2.25;0.30;;;20.60;66.70;;;;;;5055875;28;20143;-61
2022/07/15 09:51:19;;;;;;;2.97;0.40;;;20.60;65.50;;;;;;5057188;28;20477;-61
2022/07/15 09:53:45;;;;;;;2.03;0.40;;;20.60;64.90;;;;;;5071924;28;20087;-61
2022/07/15 09:56:14;;;;;;;2.95;0.68;;;20.60;64.90;;;;;;5070661;28;20172;-61
2022/07/15 09:58:42;;;;;;;3.30;0.40;;;20.70;65.00;;;;;;5074409;28;20032;-62
2022/07/15 10:01:11;;;;;;;1.95;0.40;;;20.90;65.00;;;;;;5087537;28;20020;-61
2022/07/15 10:04:20;;;;;;;3.83;0.40;;;21.00;64.40;;;;;;5076995;28;20098;-61
2022/07/15 10:06:48;;;;;;;2.05;0.40;;;21.10;63.80;;;;;;5070683;28;20267;-62
2022/07/15 10:09:14;;;;;;;2.42;0.40;;;21.00;62.90;;;;;;5062081;28;20026;-61
2022/07/15 10:11:44;;;;;;;1.38;0.30;;;21.00;62.40;;;;;;5056338;28;20024;-61
2022/07/15 10:14:21;;;;;;;1.10;0.30;;;21.00;62.20;;;;;;5079166;28;20024;-61
2022/07/15 10:17:08;;;;;;;1.92;0.30;;;21.10;61.20;;;;;;5085858;28;20025;-61
2022/07/15 10:19:52;;;;;;;1.48;0.25;;;21.00;61.00;;;;;;5085728;28;20038;-61
2022/07/15 10:22:30;;;;;;;1.85;0.30;;;21.10;61.30;;;;;;5060788;28;20020;-61
2022/07/15 10:25:32;;;;;;;2.10;0.40;;;21.20;61.60;;;;;;5071583;28;20083;-61
2022/07/15 10:28:04;;;;;;;2.35;0.40;;;21.30;61.60;;;;;;5074021;28;20192;-61
2022/07/15 10:30:30;;;;;;;2.95;0.38;;;21.40;61.10;;;;;;5074579;28;20024;-61
2022/07/15 10:33:14;;;;;;;1.00;0.30;;;21.50;60.90;;;;;;5070404;28;20028;-61
2022/07/15 10:35:47;;;;;;;2.95;0.47;;;21.70;60.30;;;;;;5067765;28;20078;-62
2022/07/15 10:38:40;;;;;;;1.88;0.50;;;21.80;60.50;;;;;;5079559;28;20404;-61
2022/07/15 10:41:14;;;;;;;1.25;0.40;;;21.90;59.90;;;;;;5061414;28;20033;-61
2022/07/15 10:43:51;;;;;;;3.03;0.40;;;21.90;59.60;;;;;;5072523;28;20089;-62
2022/07/15 10:46:17;;;;;;;2.63;0.32;;;21.90;58.90;;;;;;5086243;28;20016;-61
2022/07/15 10:48:48;;;;;;;1.95;0.40;;;21.90;59.30;;;;;;5084576;28;20480;-62
2022/07/15 10:51:36;;;;;;;1.70;0.40;;;22.00;59.00;;;;;;5084281;28;20024;-61
2022/07/15 10:54:03;;;;;;;1.80;0.32;;;22.20;59.00;;;;;;5086050;28;20028;-61
2022/07/15 10:56:45;;;;;;;1.00;0.35;;;22.20;59.00;;;;;;5085701;28;20154;-61
2022/07/15 10:59:21;;;;;;;1.98;0.30;;;22.40;58.70;;;;;;5084284;28;20067;-61
2022/07/15 11:01:50;;;;;;;1.25;0.20;;;22.50;58.60;;;;;;5074275;28;20020;-61
2022/07/15 11:04:21;;;;;;;1.08;0.28;;;22.60;58.70;;;;;;5080020;28;20078;-61
2022/07/15 11:07:10;;;;;;;2.55;0.38;;;22.70;58.70;;;;;;5068002;28;20029;-61
2022/07/15 11:09:43;;;;;;;;;;;22.80;58.40;;;;;;5083172;28;20510;-61
2022/07/15 11:12:42;;;;;;;1.00;0.20;;;22.90;58.60;;;;;;5073759;28;19958;-61
2022/07/15 11:15:24;;;;;;;1.15;0.28;;;23.00;58.00;;;;;;5066899;28;20029;-62
2022/07/15 11:17:53;;;;;;;1.02;0.25;;;23.20;57.50;;;;;;5080017;28;20518;-61
2022/07/15 11:20:23;;;;;;;2.35;0.40;;;23.30;56.80;;;;;;5063413;28;20024;-62
2022/07/15 11:22:50;;;;;;;1.13;0.28;;;23.40;56.40;;;;;;5060942;28;20028;-62
2022/07/15 11:25:20;;;;;;;1.40;0.30;;;23.40;55.40;;;;;;5062712;28;20021;-62
2022/07/15 11:28:07;;;;;;;3.35;0.30;;;23.50;55.60;;;;;;5065983;28;20093;-61
2022/07/15 11:30:34;;;;;;;1.30;0.30;;;23.60;55.70;;;;;;5059738;28;20104;-61
2022/07/15 11:33:02;;;;;;;2.50;0.75;;;23.70;55.50;;;;;;5067849;28;20024;-62
2022/07/15 11:35:28;;;;;;;1.92;0.40;;;23.90;55.40;;;;;;5074160;28;20100;-61
2022/07/15 11:37:59;;;;;;;1.00;0.30;;;24.10;55.00;;;;;;5068114;28;20371;-62
2022/07/15 11:45:59;;;;;;;1.00;0.20;;;24.20;54.30;;;;;;5067975;28;20056;-62
2022/07/15 11:48:24;;;;;;;0.68;0.20;;;24.40;54.30;;;;;;5065466;28;20031;-61
2022/07/15 11:50:53;;;;;;;1.23;0.25;;;24.50;53.80;;;;;;5062013;28;20020;-61
2022/07/15 11:53:19;;;;;;;1.48;0.20;;;24.60;53.60;;;;;;5065458;28;20477;-62
2022/07/15 11:59:07;;;;;;;1.30;0.30;;;24.80;52.60;;;;;;5049325;28;20051;-61
2022/07/15 12:01:32;;;;;;;1.20;0.40;;;25.00;52.10;;;;;;5065107;28;20028;-62
2022/07/15 12:03:59;;;;;;;1.13;0.30;;;25.20;52.30;;;;;;5060156;28;20376;-61
2022/07/15 12:06:31;;;;;;;0.75;0.30;;;25.40;51.70;;;;;;5073057;28;20027;-61
2022/07/15 12:08:59;;;;;;;1.38;0.40;;;25.50;51.50;;;;;;5076029;28;20017;-61
2022/07/15 12:11:50;;;;;;;1.17;0.30;;;25.50;51.40;;;;;;5087043;28;20029;-62
2022/07/15 12:14:22;;;;;;;2.90;0.40;;;25.50;51.30;;;;;;5055015;28;20033;-61
2022/07/15 12:16:52;;;;;;;0.80;0.20;;;25.60;51.50;;;;;;5061491;28;20027;-62
2022/07/15 12:19:26;;;;;;;1.50;0.30;;;25.70;51.20;;;;;;5070538;28;20013;-61
2022/07/15 12:21:56;;;;;;;1.02;0.20;;;25.80;51.00;;;;;;5066327;28;20017;-62
2022/07/15 12:24:45;;;;;;;0.68;0.20;;;25.90;50.60;;;;;;5077930;28;20115;-61
2022/07/15 12:27:13;;;;;;;;;;;26.00;50.80;;;;;;5075788;28;20013;-61
2022/07/15 12:29:43;;;;;;;0.52;0.28;;;26.10;50.90;;;;;;5062070;28;20360;-61
2022/07/15 12:32:14;;;;;;;1.17;0.30;;;26.20;50.40;;;;;;5068892;28;20025;-62
2022/07/15 12:38:00;;;;;;;1.27;0.25;;;26.30;49.00;;;;;;5058885;28;20049;-63
2022/07/15 12:40:26;;;;;;;1.45;0.28;;;26.20;49.20;;;;;;5064651;28;20138;-61
2022/07/15 12:42:53;;;;;;;2.53;0.30;;;26.30;49.40;;;;;;5056592;28;20033;-61
2022/07/15 12:45:24;;;;;;;2.45;0.32;;;26.30;49.20;;;;;;5059293;28;20105;-62
2022/07/15 12:48:05;;;;;;;1.00;0.17;;;26.30;49.30;;;;;;5078770;28;20016;-61
2022/07/15 12:50:34;;;;;;;0.57;0.30;;;26.30;49.40;;;;;;5076731;28;20023;-61
2022/07/15 12:53:01;;;;;;;1.30;0.17;;;26.30;49.20;;;;;;5076526;28;20016;-62
2022/07/15 12:55:30;;;;;;;2.17;0.73;;;26.30;49.50;;;;;;5080185;28;20396;-61
2022/07/15 12:58:08;;;;;;;0.93;0.20;;;26.20;49.50;;;;;;5066957;28;20052;-61
2022/07/15 13:03:31;;;;;;;1.98;0.40;;;25.90;49.50;;;;;;5065331;28;20036;-61
2022/07/15 13:05:58;;;;;;;2.25;0.30;;;25.70;49.60;;;;;;5075239;28;20021;-62
2022/07/15 13:08:29;;;;;;;1.00;0.20;;;25.70;49.80;;;;;;5081604;28;20035;-62
2022/07/15 13:10:58;;;;;;;2.85;0.30;;;25.60;49.90;;;;;;5061760;28;20029;-61
2022/07/15 13:13:26;;;;;;;0.77;0.20;;;25.60;49.90;;;;;;5071246;28;20020;-62
2022/07/15 13:15:52;;;;;;;1.80;0.30;;;25.60;50.10;;;;;;5075832;28;20135;-61
2022/07/15 13:18:19;;;;;;;0.50;0.20;;;25.60;50.10;;;;;;5089482;28;20020;-62
2022/07/15 13:20:54;;;;;;;0.40;0.20;;;25.60;50.10;;;;;;5062588;28;20415;-62
2022/07/15 13:23:20;;;;;;;0.35;0.10;;;25.60;50.30;;;;;;5071362;28;20506;-61
2022/07/15 13:25:47;;;;;;;0.68;0.22;;;25.60;50.50;;;;;;5071059;28;20037;-62